Terminal Aerodrome Forecast
Issued by NWS Sterling, VA

Current Version | Previous Version | Text Only | Print | Product List | Glossary Off
Versions: 1 2 3 4 5 6 7 8 9 10 11 12 13 14 15

000
FTUS41 KLWX 201700 RRA
TAFMRB
TAF
KMRB 201742Z 2018/2118 18008KT P6SM SCT060
     FM210000 15004KT P6SM FEW250
     FM210600 00000KT 3SM BR FEW250
     FM210900 00000KT 2SM BR SCT250
     FM211300 00000KT 3SM BR SCT200
     FM211400 VRB03KT P6SM SCT200
     FM211600 24005KT P6SM BKN110=

USA.gov is the U.S. government's official web portal to all federal, state and local government web resources and services.